Time;durP1;ratioP1;P1;durP2;ratioP2;P2;SDS_P1;SDS_P2;PMS_P1;PMS_P2;Temp;Humidity;BMP_temperature;BMP_pressure;BME280_temperature;BME280_humidity;BME280_pressure;Samples;Min_cycle;Max_cycle;Signal;HPM_P1;HPM_P2
2021/03/31 00:00:15;;;;;;;47.25;19.67;;;10.80;67.70;;;;;;4918018;29;20046;-84
2021/03/31 00:02:40;;;;;;;43.40;20.10;;;10.80;67.60;;;;;;4915746;29;20451;-83
2021/03/31 00:05:06;;;;;;;40.55;18.67;;;10.80;68.00;;;;;;4918522;29;20039;-83
2021/03/31 00:07:32;;;;;;;40.72;18.73;;;10.70;67.90;;;;;;4936230;29;20047;-84
2021/03/31 00:09:57;;;;;;;41.85;18.45;;;10.70;67.70;;;;;;4943181;29;20037;-83
2021/03/31 00:12:22;;;;;;;39.00;18.55;;;10.70;67.50;;;;;;4936205;29;20071;-83
2021/03/31 00:14:48;;;;;;;43.25;18.98;;;10.70;67.10;;;;;;4935984;29;20047;-84
2021/03/31 00:17:15;;;;;;;42.35;20.23;;;10.80;67.20;;;;;;4947028;28;20019;-85
2021/03/31 00:19:40;;;;;;;39.25;18.65;;;10.70;67.20;;;;;;4943784;29;20031;-83
2021/03/31 00:22:06;;;;;;;39.95;19.27;;;10.70;67.30;;;;;;4937557;29;20361;-83
2021/03/31 00:24:31;;;;;;;40.67;18.88;;;10.60;67.60;;;;;;4950212;29;20031;-83
2021/03/31 00:26:57;;;;;;;42.72;19.35;;;10.50;67.90;;;;;;4955423;28;20150;-83
2021/03/31 00:29:22;;;;;;;41.47;20.05;;;10.50;68.20;;;;;;4937304;29;20512;-84
2021/03/31 00:31:49;;;;;;;35.30;17.85;;;10.40;68.40;;;;;;4955252;28;20031;-83
2021/03/31 00:34:15;;;;;;;39.53;18.02;;;10.30;68.70;;;;;;4940917;29;20034;-83
2021/03/31 00:36:40;;;;;;;37.97;18.95;;;10.20;68.90;;;;;;4957662;29;20035;-83
2021/03/31 00:39:07;;;;;;;37.85;17.63;;;10.20;69.00;;;;;;4956693;29;20034;-83
2021/03/31 00:41:32;;;;;;;38.70;17.33;;;10.10;69.20;;;;;;4938794;29;20039;-83
2021/03/31 00:43:58;;;;;;;38.63;17.60;;;10.00;69.30;;;;;;4934497;29;20380;-83
2021/03/31 00:46:23;;;;;;;45.40;20.25;;;10.00;69.50;;;;;;4931464;29;20043;-83
2021/03/31 00:48:49;;;;;;;40.95;19.00;;;10.00;69.70;;;;;;4939206;29;20031;-83
2021/03/31 00:51:14;;;;;;;40.10;19.00;;;9.90;69.60;;;;;;4955954;29;20027;-83
2021/03/31 00:53:43;;;;;;;40.20;18.92;;;9.80;69.70;;;;;;4938800;29;20232;-83
2021/03/31 00:56:09;;;;;;;39.38;19.42;;;9.80;70.20;;;;;;4927084;29;20038;-84
2021/03/31 00:58:36;;;;;;;40.83;19.35;;;9.70;70.20;;;;;;4940696;29;20027;-83
2021/03/31 01:01:02;;;;;;;40.85;18.88;;;9.70;70.60;;;;;;4955733;29;20028;-83
2021/03/31 01:03:28;;;;;;;38.90;18.77;;;9.60;70.90;;;;;;4939644;29;20034;-83
2021/03/31 01:05:53;;;;;;;38.97;18.63;;;9.50;71.20;;;;;;4956687;29;20102;-84
2021/03/31 01:08:19;;;;;;;40.85;19.17;;;9.40;71.70;;;;;;4939112;29;20090;-83
2021/03/31 01:10:52;;;;;;;40.55;17.92;;;9.30;72.30;;;;;;4952745;29;20372;-84
2021/03/31 01:13:30;;;;;;;36.58;17.42;;;9.20;72.60;;;;;;4936607;29;20384;-83
2021/03/31 01:16:21;;;;;;;38.85;18.40;;;9.20;72.80;;;;;;4953422;29;20078;-84
2021/03/31 01:19:24;;;;;;;39.90;19.10;;;9.10;73.10;;;;;;4943350;29;20105;-84
2021/03/31 01:22:04;;;;;;;;;;;9.10;73.40;;;;;;4941290;29;20387;-83
2021/03/31 01:24:51;;;;;;;36.05;17.05;;;8.90;72.80;;;;;;4939948;29;19918;-83
2021/03/31 01:27:20;;;;;;;36.05;17.02;;;8.80;73.60;;;;;;4939620;29;20031;-83
2021/03/31 01:30:23;;;;;;;43.03;18.00;;;8.80;74.10;;;;;;4931026;29;20028;-83
2021/03/31 01:33:56;;;;;;;41.08;19.27;;;8.70;74.40;;;;;;4941203;29;20457;-84
2021/03/31 01:36:24;;;;;;;34.75;17.55;;;8.70;74.50;;;;;;4925528;29;20122;-81
2021/03/31 01:38:53;;;;;;;35.85;17.52;;;8.60;74.60;;;;;;4936636;29;20027;-81
2021/03/31 01:41:20;;;;;;;35.97;18.67;;;8.60;75.30;;;;;;4939296;29;20126;-84
2021/03/31 01:43:50;;;;;;;39.03;18.20;;;8.50;75.60;;;;;;4939645;29;20031;-83
2021/03/31 01:46:18;;;;;;;35.90;17.58;;;8.50;76.10;;;;;;4936447;29;20040;-83
2021/03/31 01:48:45;;;;;;;36.30;16.10;;;8.40;76.10;;;;;;4939095;29;20026;-82
2021/03/31 01:51:12;;;;;;;35.47;16.60;;;8.30;76.40;;;;;;4947567;28;20217;-83
2021/03/31 01:53:38;;;;;;;37.55;18.98;;;8.20;76.80;;;;;;4939311;29;20031;-82
2021/03/31 01:56:05;;;;;;;37.65;18.88;;;8.20;77.30;;;;;;4933719;29;20115;-83
2021/03/31 01:58:34;;;;;;;38.05;17.80;;;8.20;77.50;;;;;;4936217;29;20111;-83
2021/03/31 02:01:01;;;;;;;36.08;18.77;;;8.20;77.70;;;;;;4949354;29;20556;-83
2021/03/31 02:03:29;;;;;;;39.20;18.27;;;8.20;77.80;;;;;;4939636;29;20476;-82
2021/03/31 02:05:56;;;;;;;42.38;20.23;;;8.30;77.70;;;;;;4954842;28;20051;-83
2021/03/31 02:08:22;;;;;;;35.17;16.98;;;8.30;77.60;;;;;;4955674;29;20027;-82
2021/03/31 02:10:50;;;;;;;36.45;15.90;;;8.40;77.50;;;;;;4939040;29;20623;-83
2021/03/31 02:13:16;;;;;;;35.10;15.38;;;8.30;77.60;;;;;;4939511;29;20028;-83
2021/03/31 02:15:42;;;;;;;34.97;17.10;;;8.10;77.70;;;;;;4932697;29;20024;-82
2021/03/31 02:18:14;;;;;;;40.80;18.67;;;8.00;78.10;;;;;;4940779;29;20075;-83
2021/03/31 02:20:39;;;;;;;40.53;18.08;;;7.90;78.40;;;;;;4938496;29;20035;-82
2021/03/31 02:23:06;;;;;;;40.70;19.00;;;7.80;78.70;;;;;;4953738;29;20042;-83
2021/03/31 02:25:33;;;;;;;39.85;19.15;;;7.70;79.10;;;;;;4936163;29;20408;-83
2021/03/31 02:27:59;;;;;;;43.00;18.17;;;7.60;79.40;;;;;;4930792;29;20776;-83
2021/03/31 02:30:27;;;;;;;39.22;18.30;;;7.60;79.70;;;;;;4950275;29;20122;-83
2021/03/31 02:32:57;;;;;;;39.78;19.33;;;7.60;79.90;;;;;;4939162;29;20027;-83
2021/03/31 02:35:24;;;;;;;40.05;18.65;;;7.50;80.00;;;;;;4947426;28;20059;-83
2021/03/31 02:37:56;;;;;;;48.85;21.38;;;7.50;80.20;;;;;;4938342;29;20031;-83
2021/03/31 02:40:24;;;;;;;39.40;19.48;;;7.50;80.30;;;;;;4937758;29;20027;-83
2021/03/31 02:42:52;;;;;;;44.10;20.85;;;7.50;80.10;;;;;;4935681;29;20027;-83
2021/03/31 02:45:19;;;;;;;36.95;17.95;;;7.50;80.00;;;;;;4936700;29;20399;-83
2021/03/31 02:47:46;;;;;;;39.42;18.40;;;7.50;79.80;;;;;;4954823;29;20031;-83
2021/03/31 02:50:13;;;;;;;41.25;19.70;;;7.70;79.70;;;;;;4950946;28;20170;-83
2021/03/31 02:52:42;;;;;;;40.70;19.30;;;7.70;79.20;;;;;;4938986;29;20030;-83
2021/03/31 02:55:10;;;;;;;46.15;20.77;;;7.70;79.10;;;;;;4938521;29;20031;-83
2021/03/31 02:57:36;;;;;;;43.22;20.27;;;7.70;79.20;;;;;;4954190;29;20020;-83
2021/03/31 03:00:05;;;;;;;39.50;17.42;;;7.60;79.20;;;;;;4938659;29;20550;-89
2021/03/31 03:02:31;;;;;;;45.78;19.95;;;7.60;79.30;;;;;;4935549;29;20592;-82
2021/03/31 03:04:56;;;;;;;38.00;19.15;;;7.50;79.60;;;;;;4946806;29;20130;-82
2021/03/31 03:07:22;;;;;;;38.90;19.02;;;7.40;80.00;;;;;;4921311;29;20175;-82
2021/03/31 03:09:48;;;;;;;39.97;19.63;;;7.30;80.30;;;;;;4938390;29;20031;-82
2021/03/31 03:12:23;;;;;;;40.40;19.13;;;7.20;80.50;;;;;;4987770;28;20435;-74
2021/03/31 03:14:51;;;;;;;39.55;20.17;;;7.10;80.60;;;;;;4984055;28;20438;-74
2021/03/31 03:17:17;;;;;;;38.05;17.88;;;7.10;80.70;;;;;;4970399;28;20415;-74
2021/03/31 03:19:43;;;;;;;34.65;16.95;;;7.00;80.60;;;;;;4995688;28;20114;-74
2021/03/31 03:22:11;;;;;;;39.30;18.55;;;6.90;80.90;;;;;;4982436;28;20027;-74
2021/03/31 03:24:37;;;;;;;35.22;17.75;;;6.80;81.20;;;;;;4967682;28;20031;-74
2021/03/31 03:27:03;;;;;;;38.80;19.05;;;6.80;81.50;;;;;;4968262;28;20429;-74
2021/03/31 03:29:29;;;;;;;40.88;19.60;;;6.80;81.80;;;;;;4980551;28;20035;-75
2021/03/31 03:31:55;;;;;;;42.38;20.30;;;6.80;81.90;;;;;;4976161;28;20039;-74
2021/03/31 03:34:22;;;;;;;43.33;20.52;;;6.80;82.00;;;;;;4968558;28;20479;-74
2021/03/31 03:36:48;;;;;;;41.75;19.13;;;6.90;82.10;;;;;;4969746;28;20046;-74
2021/03/31 03:39:14;;;;;;;38.25;18.17;;;6.90;81.70;;;;;;4967682;28;20058;-74
2021/03/31 03:41:40;;;;;;;34.72;18.60;;;7.00;81.50;;;;;;4972544;28;20054;-74
2021/03/31 03:44:05;;;;;;;40.50;18.35;;;7.10;81.40;;;;;;4967198;28;20031;-74
2021/03/31 03:46:33;;;;;;;39.85;19.45;;;7.10;81.30;;;;;;4970212;28;20445;-74
2021/03/31 03:49:00;;;;;;;47.90;19.05;;;7.10;81.30;;;;;;4981284;28;20027;-74
2021/03/31 03:51:26;;;;;;;41.03;18.95;;;7.00;81.30;;;;;;4973181;28;20065;-74
2021/03/31 03:53:55;;;;;;;35.20;17.80;;;7.10;81.20;;;;;;4983682;28;20510;-74
2021/03/31 03:56:21;;;;;;;40.75;18.10;;;7.10;81.30;;;;;;4969967;28;20032;-74
2021/03/31 03:58:46;;;;;;;35.67;17.25;;;7.10;81.10;;;;;;4967298;28;20031;-74
2021/03/31 04:01:12;;;;;;;36.33;17.80;;;7.10;80.90;;;;;;4979132;28;20549;-74
2021/03/31 04:03:38;;;;;;;41.75;18.92;;;7.20;81.00;;;;;;4970516;28;20084;-74
2021/03/31 04:06:04;;;;;;;38.53;18.17;;;7.20;80.80;;;;;;4978178;28;20023;-74
2021/03/31 04:08:31;;;;;;;39.67;16.25;;;7.20;80.50;;;;;;4989445;28;20030;-74
2021/03/31 04:10:58;;;;;;;39.33;18.10;;;7.30;80.20;;;;;;4984744;28;20061;-74
2021/03/31 04:13:24;;;;;;;36.40;16.10;;;7.40;79.90;;;;;;4984005;28;20072;-74
2021/03/31 04:16:08;;;;;;;38.90;16.20;;;7.60;79.50;;;;;;4968768;28;20034;-74
2021/03/31 04:18:36;;;;;;;36.80;16.83;;;7.70;78.90;;;;;;4972693;28;20031;-74
2021/03/31 04:21:02;;;;;;;35.72;16.42;;;7.70;78.40;;;;;;4976569;28;20029;-75
2021/03/31 04:23:28;;;;;;;33.53;15.30;;;7.70;78.10;;;;;;4959706;28;20034;-75
2021/03/31 04:25:57;;;;;;;35.90;17.35;;;7.80;77.90;;;;;;4954341;28;20031;-75
2021/03/31 04:28:25;;;;;;;37.95;17.30;;;7.80;77.70;;;;;;4953320;28;20041;-75
2021/03/31 04:30:51;;;;;;;34.63;16.50;;;7.80;77.60;;;;;;4958468;28;20034;-75
2021/03/31 04:33:18;;;;;;;33.78;17.13;;;7.70;77.60;;;;;;4958298;28;20027;-74
2021/03/31 04:35:44;;;;;;;34.63;16.90;;;7.70;77.50;;;;;;4953400;28;20046;-74
2021/03/31 04:38:11;;;;;;;34.85;16.13;;;7.70;77.60;;;;;;4959103;28;20318;-74
2021/03/31 04:40:58;;;;;;;36.45;16.90;;;7.70;77.60;;;;;;4971629;28;20031;-74
2021/03/31 04:43:28;;;;;;;34.42;16.45;;;7.60;77.50;;;;;;4955310;28;20055;-74
2021/03/31 04:46:02;;;;;;;36.40;16.90;;;7.60;77.50;;;;;;4958075;28;20478;-74
2021/03/31 04:48:29;;;;;;;38.75;17.13;;;7.60;77.30;;;;;;4969033;28;20386;-74
2021/03/31 04:50:55;;;;;;;38.63;16.58;;;7.60;77.30;;;;;;4953750;28;20034;-75
2021/03/31 04:53:21;;;;;;;35.33;16.58;;;7.60;77.20;;;;;;4957320;28;20421;-75
2021/03/31 04:55:47;;;;;;;31.05;16.05;;;7.60;77.00;;;;;;4969744;28;20030;-75
2021/03/31 04:58:12;;;;;;;36.55;17.60;;;7.60;76.90;;;;;;4995130;28;20559;-75
2021/03/31 05:00:38;;;;;;;38.72;17.15;;;7.60;76.90;;;;;;4960225;28;20024;-75
2021/03/31 05:03:05;;;;;;;36.58;17.05;;;7.60;76.90;;;;;;4961958;28;20109;-75
2021/03/31 05:05:30;;;;;;;35.33;18.10;;;7.50;77.00;;;;;;4968482;28;20055;-75
2021/03/31 05:07:56;;;;;;;35.53;17.25;;;7.50;77.00;;;;;;4958469;28;20061;-75
2021/03/31 05:10:23;;;;;;;33.10;15.52;;;7.50;77.00;;;;;;4965461;28;20039;-75
2021/03/31 05:12:49;;;;;;;35.42;16.77;;;7.50;77.00;;;;;;4961653;28;20033;-75
2021/03/31 05:15:15;;;;;;;34.97;16.38;;;7.50;77.00;;;;;;4952880;28;20030;-74
2021/03/31 05:17:40;;;;;;;32.30;15.15;;;7.50;76.80;;;;;;4953309;28;20035;-75
2021/03/31 05:20:06;;;;;;;30.42;16.25;;;7.50;76.70;;;;;;4955157;28;20494;-75
2021/03/31 05:22:32;;;;;;;38.90;17.13;;;7.50;76.60;;;;;;4960605;28;20433;-75
2021/03/31 05:24:57;;;;;;;35.40;16.77;;;7.50;76.60;;;;;;4968360;28;20081;-75
2021/03/31 05:27:23;;;;;;;33.00;16.58;;;7.50;76.60;;;;;;4953778;28;20027;-75
2021/03/31 05:29:49;;;;;;;39.33;17.48;;;7.50;76.70;;;;;;4960769;28;20130;-75
2021/03/31 05:32:14;;;;;;;34.38;15.50;;;7.50;76.80;;;;;;4953085;28;20121;-75
2021/03/31 05:34:40;;;;;;;35.05;16.67;;;7.40;76.80;;;;;;4952478;28;20106;-75
2021/03/31 05:37:06;;;;;;;30.52;16.10;;;7.40;76.80;;;;;;4957409;28;20042;-75
2021/03/31 05:39:31;;;;;;;31.60;15.70;;;7.40;76.90;;;;;;4954512;28;20027;-74
2021/03/31 05:41:58;;;;;;;32.20;15.68;;;7.40;77.00;;;;;;4955387;28;20023;-73
2021/03/31 05:44:24;;;;;;;29.00;14.68;;;7.40;77.00;;;;;;4961435;28;20104;-73
2021/03/31 05:46:51;;;;;;;30.25;15.18;;;7.40;77.10;;;;;;4957732;28;20031;-74
2021/03/31 05:49:16;;;;;;;29.90;15.55;;;7.40;77.10;;;;;;4961206;28;20023;-74
2021/03/31 05:51:42;;;;;;;31.35;16.05;;;7.50;77.00;;;;;;4960930;28;20062;-74
2021/03/31 05:54:08;;;;;;;29.30;14.57;;;7.50;76.90;;;;;;4966682;28;20030;-74
2021/03/31 05:56:34;;;;;;;33.78;15.65;;;7.60;76.90;;;;;;4957323;28;20428;-74
2021/03/31 05:59:03;;;;;;;38.78;16.35;;;7.60;76.80;;;;;;4956330;28;20094;-74
2021/03/31 06:01:30;;;;;;;29.08;16.35;;;7.70;76.60;;;;;;4965937;28;20031;-73
2021/03/31 06:03:57;;;;;;;30.35;15.77;;;7.80;76.40;;;;;;4966307;28;20034;-74
2021/03/31 06:06:23;;;;;;;31.50;14.95;;;7.80;76.30;;;;;;4955219;28;20045;-75
2021/03/31 06:08:49;;;;;;;33.47;16.00;;;7.90;76.30;;;;;;4966844;28;20022;-74
2021/03/31 06:11:17;;;;;;;28.27;14.57;;;7.90;76.20;;;;;;4952630;28;20051;-74
2021/03/31 06:13:55;;;;;;;25.75;14.27;;;8.00;76.20;;;;;;4955341;28;20019;-74
2021/03/31 06:16:31;;;;;;;29.52;14.52;;;8.00;76.10;;;;;;4957164;28;20083;-74
2021/03/31 06:19:14;;;;;;;26.73;14.48;;;8.10;76.00;;;;;;4952677;28;20494;-74
2021/03/31 06:21:40;;;;;;;28.80;14.40;;;8.20;76.00;;;;;;4963932;28;20030;-74
2021/03/31 06:24:24;;;;;;;28.35;13.70;;;8.30;76.00;;;;;;4968624;28;20022;-74
2021/03/31 06:26:50;;;;;;;28.00;14.02;;;8.40;75.70;;;;;;4951265;28;20034;-74
2021/03/31 06:29:15;;;;;;;25.98;13.85;;;8.40;75.40;;;;;;4965552;28;20410;-74
2021/03/31 06:31:46;;;;;;;30.77;14.98;;;8.50;75.10;;;;;;4962958;28;20070;-74
2021/03/31 06:34:20;;;;;;;27.25;14.23;;;8.60;74.90;;;;;;4951190;28;20076;-74
2021/03/31 06:36:49;;;;;;;28.42;14.95;;;8.80;75.60;;;;;;4950415;28;20023;-74
2021/03/31 06:39:34;;;;;;;29.25;14.73;;;8.80;74.90;;;;;;4957984;28;20178;-74
2021/03/31 06:42:11;;;;;;;27.10;13.73;;;8.90;75.00;;;;;;4956311;28;20030;-76
2021/03/31 06:47:54;;;;;;;24.20;13.43;;;9.10;75.10;;;;;;4979975;28;20547;-76
2021/03/31 06:50:19;;;;;;;26.80;14.55;;;9.30;75.10;;;;;;4963304;28;20526;-77
2021/03/31 06:52:58;;;;;;;25.58;14.77;;;9.40;75.20;;;;;;4966837;28;20039;-74
2021/03/31 06:55:25;;;;;;;29.10;14.95;;;9.50;75.40;;;;;;4954285;28;20027;-76
2021/03/31 06:57:59;;;;;;;23.98;15.05;;;9.60;75.40;;;;;;4958392;28;20302;-77
2021/03/31 07:00:26;;;;;;;27.67;15.02;;;9.80;75.50;;;;;;4962022;28;20034;-77
2021/03/31 07:02:53;;;;;;;28.17;15.18;;;9.90;75.50;;;;;;4960324;28;20506;-76
2021/03/31 07:05:20;;;;;;;22.73;13.77;;;10.10;75.40;;;;;;4954184;28;20032;-77
2021/03/31 07:07:45;;;;;;;23.80;13.27;;;10.30;75.30;;;;;;4961195;28;20084;-76
2021/03/31 07:10:21;;;;;;;29.45;14.43;;;10.40;74.90;;;;;;4952911;28;20031;-76
2021/03/31 07:12:50;;;;;;;24.05;13.30;;;10.50;74.60;;;;;;4952326;28;20062;-76
2021/03/31 07:15:19;;;;;;;26.38;14.20;;;10.70;74.10;;;;;;4961637;28;20038;-76
2021/03/31 07:17:48;;;;;;;27.35;13.88;;;10.80;73.70;;;;;;4957391;28;20394;-76
2021/03/31 07:20:15;;;;;;;21.45;13.57;;;11.00;73.20;;;;;;4958907;28;20536;-77
2021/03/31 07:22:40;;;;;;;26.45;14.10;;;11.10;72.40;;;;;;4957095;28;20428;-77
2021/03/31 07:25:08;;;;;;;25.33;15.15;;;11.30;71.80;;;;;;4950564;28;20115;-77
2021/03/31 07:27:34;;;;;;;24.63;14.23;;;11.50;71.40;;;;;;4954901;28;21870;-77
2021/03/31 07:30:10;;;;;;;29.33;14.38;;;11.60;71.00;;;;;;4960398;28;20026;-77
2021/03/31 07:32:54;;;;;;;22.60;12.73;;;11.70;70.30;;;;;;4956592;28;20035;-77
2021/03/31 07:35:26;;;;;;;21.42;13.65;;;11.90;69.80;;;;;;4957803;28;20023;-76
2021/03/31 07:37:52;;;;;;;24.43;13.70;;;12.00;69.20;;;;;;4960879;28;20116;-76
2021/03/31 07:40:19;;;;;;;27.77;14.13;;;12.10;68.90;;;;;;4952026;28;20035;-77
2021/03/31 07:42:54;;;;;;;27.50;14.18;;;12.20;68.70;;;;;;4950329;28;20035;-76
2021/03/31 07:45:28;;;;;;;22.40;13.93;;;12.30;68.80;;;;;;4954690;28;21561;-76
2021/03/31 07:47:54;;;;;;;21.65;13.60;;;12.40;68.90;;;;;;4955720;28;20432;-77
2021/03/31 07:50:20;;;;;;;23.63;14.77;;;12.50;68.50;;;;;;4958605;28;20019;-75
2021/03/31 07:52:51;;;;;;;27.45;15.13;;;12.60;68.00;;;;;;4958030;28;20042;-76
2021/03/31 07:55:46;;;;;;;26.02;14.35;;;12.70;67.70;;;;;;4959642;28;20062;-76
2021/03/31 07:58:29;;;;;;;29.38;14.55;;;12.90;67.80;;;;;;4969529;28;20027;-77
2021/03/31 08:01:02;;;;;;;22.65;13.45;;;13.10;67.50;;;;;;4962877;28;20027;-77
2021/03/31 08:03:31;;;;;;;23.48;14.40;;;13.20;67.30;;;;;;4959601;28;20034;-76
2021/03/31 08:06:12;;;;;;;25.55;14.25;;;13.30;66.90;;;;;;4965236;28;20061;-77
2021/03/31 08:09:05;;;;;;;26.67;14.45;;;13.40;66.30;;;;;;4964453;28;20053;-75
2021/03/31 08:11:45;;;;;;;26.30;14.88;;;13.60;66.50;;;;;;4962729;28;20061;-76
2021/03/31 08:14:30;;;;;;;24.30;13.95;;;13.80;66.10;;;;;;4969867;28;20403;-74
2021/03/31 08:16:59;;;;;;;22.27;14.18;;;13.90;65.60;;;;;;4972544;28;20114;-75
2021/03/31 08:19:31;;;;;;;23.33;14.75;;;14.10;65.10;;;;;;4966731;28;20042;-77
2021/03/31 08:21:57;;;;;;;22.40;15.27;;;14.20;64.60;;;;;;4958346;28;20034;-77
2021/03/31 08:24:40;;;;;;;30.92;15.60;;;14.40;63.60;;;;;;4961550;28;20038;-77
2021/03/31 08:27:06;;;;;;;25.23;14.45;;;14.50;63.40;;;;;;4966225;28;20121;-77
2021/03/31 08:29:43;;;;;;;23.65;14.05;;;14.60;62.80;;;;;;4955084;28;20149;-77
2021/03/31 08:32:14;;;;;;;30.45;14.77;;;14.70;62.50;;;;;;4963564;28;20379;-77
2021/03/31 08:34:40;;;;;;;22.88;14.65;;;14.80;61.90;;;;;;4967306;28;20037;-77
2021/03/31 08:37:16;;;;;;;23.40;15.07;;;14.90;61.70;;;;;;4957098;28;20035;-76
2021/03/31 08:39:42;;;;;;;23.92;14.50;;;15.00;61.50;;;;;;4971489;28;20049;-77
2021/03/31 08:42:07;;;;;;;26.38;14.95;;;15.20;61.50;;;;;;4971071;28;20034;-77
2021/03/31 08:44:36;;;;;;;27.15;14.82;;;15.30;60.90;;;;;;4954444;28;20054;-77
2021/03/31 08:47:14;;;;;;;25.63;15.18;;;15.40;60.50;;;;;;4963556;28;20471;-77
2021/03/31 08:49:41;;;;;;;29.48;14.65;;;15.50;60.10;;;;;;4969454;28;20035;-77
2021/03/31 08:52:09;;;;;;;27.23;14.90;;;15.60;59.80;;;;;;4960371;28;20038;-77
2021/03/31 08:54:47;;;;;;;24.77;14.57;;;15.70;59.50;;;;;;4962828;28;20031;-76
2021/03/31 08:57:24;;;;;;;28.83;15.00;;;15.80;59.60;;;;;;4968921;28;20041;-76
2021/03/31 08:59:53;;;;;;;24.15;15.05;;;16.00;59.40;;;;;;4968589;28;20096;-76
2021/03/31 09:02:21;;;;;;;26.63;14.80;;;16.10;59.00;;;;;;4959895;28;20036;-76
2021/03/31 09:04:49;;;;;;;20.92;14.68;;;16.30;59.00;;;;;;4953849;28;20053;-76
2021/03/31 09:07:15;;;;;;;24.33;14.32;;;16.50;58.50;;;;;;4962103;28;20372;-76
2021/03/31 09:09:43;;;;;;;21.75;14.10;;;16.60;57.80;;;;;;4955940;28;20093;-76
2021/03/31 09:12:13;;;;;;;20.75;14.20;;;16.80;57.60;;;;;;4962134;28;20179;-76
2021/03/31 09:14:47;;;;;;;24.75;14.80;;;16.90;57.60;;;;;;4956668;28;20107;-76
2021/03/31 09:17:20;;;;;;;19.75;14.13;;;17.00;57.10;;;;;;4963904;28;20027;-77
2021/03/31 09:19:49;;;;;;;25.73;14.95;;;17.10;56.80;;;;;;4958425;28;20534;-75
2021/03/31 09:22:17;;;;;;;27.10;14.25;;;17.30;56.30;;;;;;4955707;28;20058;-76
2021/03/31 09:24:48;;;;;;;27.30;14.90;;;17.40;56.20;;;;;;4967752;28;20535;-76
2021/03/31 09:27:19;;;;;;;21.83;13.95;;;17.50;56.10;;;;;;4959108;28;20039;-76
2021/03/31 09:29:46;;;;;;;22.50;14.43;;;17.60;55.20;;;;;;4975228;28;20136;-76
2021/03/31 09:32:15;;;;;;;23.15;14.35;;;17.80;55.20;;;;;;4967777;28;20047;-75
2021/03/31 09:34:42;;;;;;;22.13;13.73;;;17.90;54.70;;;;;;4954510;28;20157;-75
2021/03/31 09:37:11;;;;;;;26.40;14.80;;;18.00;54.70;;;;;;4955805;28;20629;-75
2021/03/31 09:39:51;;;;;;;29.70;14.68;;;18.10;54.50;;;;;;4966915;28;20034;-75
2021/03/31 09:42:28;;;;;;;23.52;14.32;;;18.20;54.80;;;;;;4958052;28;20041;-76
2021/03/31 09:44:55;;;;;;;24.45;14.63;;;18.20;53.80;;;;;;4953470;28;20023;-76
2021/03/31 09:47:22;;;;;;;23.33;14.48;;;18.30;54.40;;;;;;4964715;28;20034;-76
2021/03/31 09:49:49;;;;;;;19.42;13.88;;;18.50;53.60;;;;;;4960648;28;20023;-76
2021/03/31 09:52:15;;;;;;;22.70;13.10;;;18.60;52.70;;;;;;4961679;28;20031;-77
2021/03/31 09:54:46;;;;;;;24.83;14.07;;;18.70;53.20;;;;;;4958810;28;20058;-76
2021/03/31 09:57:14;;;;;;;25.20;14.65;;;18.90;53.00;;;;;;4963118;28;20509;-76
2021/03/31 09:59:41;;;;;;;18.70;14.55;;;19.00;52.10;;;;;;4956365;28;20027;-77
2021/03/31 10:02:07;;;;;;;28.15;15.35;;;19.10;51.40;;;;;;4967965;28;22266;-77
2021/03/31 10:04:36;;;;;;;21.55;15.23;;;19.20;51.00;;;;;;4961245;28;20487;-77
2021/03/31 10:07:14;;;;;;;24.50;15.38;;;19.20;50.00;;;;;;4958122;28;20026;-77
2021/03/31 10:09:44;;;;;;;24.75;15.25;;;19.30;50.30;;;;;;4956647;28;20555;-77
2021/03/31 10:12:12;;;;;;;26.48;14.82;;;19.40;50.70;;;;;;4958836;28;20048;-77
2021/03/31 10:14:47;;;;;;;23.63;14.90;;;19.50;50.40;;;;;;4953793;28;20047;-77
2021/03/31 10:17:14;;;;;;;23.27;14.98;;;19.60;50.40;;;;;;4952412;28;20035;-77
2021/03/31 10:19:40;;;;;;;24.63;14.43;;;19.70;50.00;;;;;;4952646;28;20019;-75
2021/03/31 10:22:06;;;;;;;19.92;14.00;;;19.80;49.90;;;;;;4960222;28;20033;-75
2021/03/31 10:24:41;;;;;;;19.77;14.18;;;19.90;49.20;;;;;;4971995;28;20019;-77
2021/03/31 10:27:08;;;;;;;22.30;14.07;;;20.00;49.10;;;;;;4953518;28;20031;-77
2021/03/31 10:29:35;;;;;;;18.05;13.90;;;20.10;48.50;;;;;;4952060;28;20026;-77
2021/03/31 10:32:02;;;;;;;25.05;14.75;;;20.20;47.80;;;;;;4951762;28;20055;-77
2021/03/31 10:34:39;;;;;;;21.88;14.13;;;20.30;47.90;;;;;;4951398;28;20050;-77
2021/03/31 10:37:16;;;;;;;17.60;13.30;;;20.50;47.80;;;;;;4954051;28;20106;-77
2021/03/31 10:51:23;;;;;;;21.67;14.20;;;21.00;47.20;;;;;;4954815;28;20035;-77
2021/03/31 10:54:00;;;;;;;18.55;13.18;;;21.10;47.10;;;;;;4954698;28;20030;-78
2021/03/31 10:56:32;;;;;;;22.65;14.70;;;21.30;47.40;;;;;;4952085;28;20486;-76
2021/03/31 10:58:58;;;;;;;21.67;14.13;;;21.40;47.00;;;;;;4954702;28;20066;-75
2021/03/31 11:01:25;;;;;;;19.08;13.52;;;21.50;47.20;;;;;;4957204;28;20054;-76
2021/03/31 11:03:51;;;;;;;21.20;13.85;;;21.50;46.10;;;;;;4960659;28;20041;-77
2021/03/31 11:06:21;;;;;;;19.08;13.32;;;21.70;45.40;;;;;;4962629;28;20023;-77
2021/03/31 11:08:47;;;;;;;21.48;14.63;;;21.70;45.30;;;;;;4962308;28;20051;-77
2021/03/31 11:11:12;;;;;;;21.50;15.30;;;21.80;45.00;;;;;;4957473;28;20075;-77
2021/03/31 11:13:38;;;;;;;21.05;14.65;;;21.90;45.00;;;;;;4955287;28;20019;-76
2021/03/31 11:16:09;;;;;;;24.95;14.07;;;22.00;45.20;;;;;;4950844;28;20097;-78
2021/03/31 11:26:23;;;;;;;24.27;16.05;;;22.40;44.50;;;;;;4961349;28;20038;-78
2021/03/31 11:28:49;;;;;;;28.77;15.52;;;22.50;44.20;;;;;;4954337;28;20466;-77
2021/03/31 11:31:14;;;;;;;22.05;14.77;;;22.50;43.60;;;;;;4960730;28;20483;-77
2021/03/31 11:33:40;;;;;;;22.95;14.35;;;22.60;43.70;;;;;;4953709;28;20027;-76
2021/03/31 11:36:06;;;;;;;22.83;14.68;;;22.70;43.60;;;;;;4958755;28;20387;-77
2021/03/31 11:38:31;;;;;;;25.42;14.32;;;22.70;43.00;;;;;;4956429;28;20032;-77
2021/03/31 11:40:57;;;;;;;21.27;14.75;;;22.80;42.60;;;;;;4957156;28;20100;-77
2021/03/31 11:43:23;;;;;;;25.48;14.65;;;22.90;42.50;;;;;;4959122;28;20455;-77
2021/03/31 11:45:48;;;;;;;22.63;13.98;;;22.90;42.70;;;;;;4957486;28;20794;-76
2021/03/31 11:48:15;;;;;;;20.40;14.80;;;23.00;42.90;;;;;;4959303;28;20028;-76
2021/03/31 11:50:42;;;;;;;27.45;15.57;;;23.10;42.50;;;;;;4955524;28;20475;-76
2021/03/31 11:53:08;;;;;;;24.20;15.20;;;23.20;42.10;;;;;;4958242;28;20027;-76
2021/03/31 11:55:34;;;;;;;23.65;14.65;;;23.30;42.10;;;;;;4958361;28;20054;-76
2021/03/31 11:57:59;;;;;;;20.33;14.75;;;23.40;41.50;;;;;;4956584;28;20054;-76
2021/03/31 12:00:25;;;;;;;23.63;15.23;;;23.40;41.40;;;;;;4958378;28;20258;-76
2021/03/31 12:02:51;;;;;;;23.40;15.52;;;23.50;41.40;;;;;;4961139;28;20466;-76
2021/03/31 12:05:17;;;;;;;20.17;14.63;;;23.60;40.40;;;;;;4957294;28;20059;-75
2021/03/31 12:07:43;;;;;;;28.73;15.30;;;23.70;41.30;;;;;;4962402;28;20027;-77
2021/03/31 12:10:09;;;;;;;22.15;14.90;;;23.70;40.10;;;;;;4955849;28;20485;-77
2021/03/31 12:12:36;;;;;;;25.52;16.10;;;23.80;39.90;;;;;;4967531;28;20054;-77
2021/03/31 12:15:03;;;;;;;24.48;16.42;;;23.80;39.00;;;;;;4957894;28;20031;-77
2021/03/31 12:17:29;;;;;;;23.40;15.13;;;23.80;38.50;;;;;;4958080;28;20060;-76
2021/03/31 12:19:54;;;;;;;26.80;16.67;;;23.80;39.20;;;;;;4965805;28;20029;-77
2021/03/31 12:22:20;;;;;;;26.20;17.40;;;23.80;38.90;;;;;;4971539;28;20033;-77
2021/03/31 12:24:45;;;;;;;25.00;17.00;;;23.90;38.90;;;;;;4961358;28;20494;-78
2021/03/31 12:27:14;;;;;;;27.60;15.60;;;23.90;38.80;;;;;;4965390;28;20433;-77
2021/03/31 12:29:43;;;;;;;24.67;16.92;;;23.90;38.90;;;;;;4969259;28;20061;-76
2021/03/31 12:32:09;;;;;;;24.73;15.95;;;24.00;38.80;;;;;;4973032;28;20095;-75
2021/03/31 12:34:35;;;;;;;25.13;16.45;;;24.10;38.80;;;;;;4969920;28;20027;-76
2021/03/31 12:37:01;;;;;;;24.40;16.17;;;24.10;39.30;;;;;;4962745;28;20133;-76
2021/03/31 12:39:26;;;;;;;27.75;18.48;;;24.20;39.40;;;;;;4962005;28;20692;-76
2021/03/31 12:41:52;;;;;;;22.58;16.88;;;24.20;39.50;;;;;;4962717;28;20364;-76
2021/03/31 12:44:18;;;;;;;28.10;20.33;;;24.20;39.40;;;;;;4958725;28;20057;-75
2021/03/31 12:46:44;;;;;;;23.48;17.55;;;24.10;39.20;;;;;;4973704;28;20023;-76
2021/03/31 12:49:09;;;;;;;25.63;17.15;;;24.20;38.80;;;;;;4968790;28;20046;-76
2021/03/31 12:51:38;;;;;;;25.80;18.35;;;24.20;38.40;;;;;;4962225;28;20181;-76
2021/03/31 12:54:09;;;;;;;24.40;16.38;;;24.30;38.70;;;;;;4962097;28;20018;-77
2021/03/31 12:56:35;;;;;;;29.25;17.90;;;24.40;39.00;;;;;;4959416;28;20093;-77
2021/03/31 12:59:01;;;;;;;26.33;18.05;;;24.50;38.80;;;;;;4955658;28;20165;-78
2021/03/31 13:01:27;;;;;;;34.60;18.13;;;24.60;37.50;;;;;;4980151;28;20027;-78
2021/03/31 13:03:53;;;;;;;30.48;18.70;;;24.60;38.40;;;;;;4961644;28;20068;-77